createdAt,value
2019-03-16T00:00:54.484Z,100141.27
2019-03-16T00:03:28.512Z,100109.55
2019-03-16T00:06:00.811Z,100123.22
2019-03-16T00:08:33.749Z,100128.27
2019-03-16T00:11:05.523Z,100112.75
2019-03-16T00:13:42.656Z,100129.72
2019-03-16T00:16:13.169Z,100123.95
2019-03-16T00:18:44.349Z,100137.22
2019-03-16T00:21:17.513Z,100130.62
2019-03-16T00:23:47.474Z,100125.05
2019-03-16T00:26:18.522Z,100133.26
2019-03-16T00:28:48.517Z,100134.69
2019-03-16T00:31:20.637Z,100131.70
2019-03-16T00:33:50.335Z,100129.99
2019-03-16T00:36:19.956Z,100134.75
2019-03-16T00:38:51.313Z,100133.95
2019-03-16T00:41:21.117Z,100149.48
2019-03-16T00:43:50.877Z,100138.01
2019-03-16T00:46:21.431Z,100141.39
2019-03-16T00:48:51.449Z,100131.99
2019-03-16T00:51:24.572Z,100131.31
2019-03-16T00:53:54.883Z,100148.91
2019-03-16T00:56:25.054Z,100143.06
2019-03-16T00:58:54.657Z,100156.23
2019-03-16T01:01:24.223Z,100146.98
2019-03-16T01:03:54.436Z,100151.05
2019-03-16T01:06:24.409Z,100174.77
2019-03-16T01:08:53.977Z,100149.05
2019-03-16T01:11:24.518Z,100144.66
2019-03-16T01:13:54.007Z,100155.41
2019-03-16T01:16:23.536Z,100148.88
2019-03-16T01:18:53.122Z,100145.20
2019-03-16T01:21:22.630Z,100140.34
2019-03-16T01:23:53.375Z,100147.56
2019-03-16T01:26:23.435Z,100144.30
2019-03-16T01:28:52.945Z,100148.02
2019-03-16T01:31:22.482Z,100155.94
2019-03-16T01:33:51.947Z,100175.53
2019-03-16T01:36:27.129Z,100157.34
2019-03-16T01:38:56.737Z,100157.81
2019-03-16T01:41:26.221Z,100163.67
2019-03-16T01:43:56.525Z,100142.58
2019-03-16T01:46:26.566Z,100143.42
2019-03-16T01:48:55.987Z,100173.11
2019-03-16T01:51:25.646Z,100142.66
2019-03-16T01:53:55.548Z,100144.63
2019-03-16T01:56:25.092Z,100148.14
2019-03-16T01:58:54.692Z,100141.84
2019-03-16T02:01:24.243Z,100161.50
2019-03-16T02:03:53.705Z,100163.19
2019-03-16T02:06:23.268Z,100157.55
2019-03-16T02:08:54.128Z,100163.56
2019-03-16T02:11:23.645Z,100173.75
2019-03-16T02:13:53.060Z,100168.31
2019-03-16T02:16:22.457Z,100167.52
2019-03-16T02:18:52.292Z,100181.77
2019-03-16T02:21:21.775Z,100171.88
2019-03-16T02:23:51.566Z,100180.51
2019-03-16T02:26:21.030Z,100176.09
2019-03-16T02:28:50.538Z,100176.68
2019-03-16T02:31:19.949Z,100165.86
2019-03-16T02:33:51.385Z,100155.82
2019-03-16T02:36:20.912Z,100172.09
2019-03-16T02:38:50.463Z,100175.47
2019-03-16T02:41:19.967Z,100175.08
2019-03-16T02:43:49.579Z,100166.25
2019-03-16T02:46:19.011Z,100173.58
2019-03-16T02:48:48.480Z,100166.16
2019-03-16T02:51:17.924Z,100190.89
2019-03-16T02:53:47.500Z,100179.33
2019-03-16T02:56:16.879Z,100165.86
2019-03-16T02:58:47.272Z,100161.38
2019-03-16T03:01:16.761Z,100167.56
2019-03-16T03:03:46.432Z,100189.96
2019-03-16T03:06:18.950Z,100177.14
2019-03-16T03:08:48.680Z,100190.25
2019-03-16T03:11:18.232Z,100187.61
2019-03-16T03:13:47.799Z,100184.52
2019-03-16T03:16:17.288Z,100191.02
2019-03-16T03:18:50.295Z,100186.63
2019-03-16T03:21:19.874Z,100189.80
2019-03-16T03:23:49.485Z,100193.12
2019-03-16T03:26:18.990Z,100185.68
2019-03-16T03:28:48.482Z,100186.46
2019-03-16T03:31:18.003Z,100192.76
2019-03-16T03:34:00.251Z,100184.18
2019-03-16T03:36:19.315Z,100192.27
2019-03-16T03:38:48.729Z,100184.29
2019-03-16T03:41:18.228Z,100196.50
2019-03-16T03:43:47.696Z,100199.80
2019-03-16T03:46:17.213Z,100203.78
2019-03-16T03:48:47.075Z,100204.08
2019-03-16T03:51:16.601Z,100211.05
2019-03-16T03:53:46.055Z,100214.60
2019-03-16T03:56:15.788Z,100212.14
2019-03-16T03:58:45.280Z,100212.45
2019-03-16T04:01:14.819Z,100212.06
2019-03-16T04:03:44.617Z,100219.53
2019-03-16T04:06:14.085Z,100214.58
2019-03-16T04:08:43.508Z,100212.86
2019-03-16T04:11:13.564Z,100211.45
2019-03-16T04:13:43.034Z,100221.44
2019-03-16T04:16:12.694Z,100217.02
2019-03-16T04:18:42.198Z,100212.91
2019-03-16T04:21:12.460Z,100216.48
2019-03-16T04:23:42.318Z,100215.70
2019-03-16T04:26:11.739Z,100223.81
2019-03-16T04:28:41.129Z,100221.27
2019-03-16T04:31:10.626Z,100227.55
2019-03-16T04:33:40.173Z,100224.52
2019-03-16T04:36:10.083Z,100226.58
2019-03-16T04:38:39.578Z,100231.81
2019-03-16T04:41:09.186Z,100231.62
2019-03-16T04:43:41.891Z,100229.84
2019-03-16T04:46:14.290Z,100217.76
2019-03-16T04:48:43.185Z,100225.89
2019-03-16T04:51:13.069Z,100215.41
2019-03-16T04:53:42.608Z,100216.08
2019-03-16T04:56:12.072Z,100210.58
2019-03-16T04:58:42.083Z,100208.58
2019-03-16T05:01:11.771Z,100212.19
2019-03-16T05:03:41.310Z,100219.72
2019-03-16T05:06:11.336Z,100220.13
2019-03-16T05:08:40.898Z,100218.72
2019-03-16T05:11:10.355Z,100216.95
2019-03-16T05:13:40.511Z,100222.92
2019-03-16T05:16:10.184Z,100219.58
2019-03-16T05:18:40.410Z,100214.82
2019-03-16T05:21:10.030Z,100220.70
2019-03-16T05:23:39.530Z,100225.75
2019-03-16T05:26:09.062Z,100220.34
2019-03-16T05:28:39.022Z,100208.05
2019-03-16T05:31:11.441Z,100203.81
2019-03-16T05:33:43.438Z,100225.44
2019-03-16T05:36:13.589Z,100220.67
2019-03-16T05:38:43.134Z,100218.34
2019-03-16T05:41:12.684Z,100224.36
2019-03-16T05:43:46.531Z,100220.53
2019-03-16T05:46:18.111Z,100229.28
2019-03-16T05:48:47.625Z,100236.83
2019-03-16T05:51:17.190Z,100229.30
2019-03-16T05:53:48.449Z,100233.74
2019-03-16T05:56:17.838Z,100226.80
2019-03-16T05:58:49.919Z,100231.86
2019-03-16T06:01:21.962Z,100239.84
2019-03-16T06:03:51.940Z,100234.59
2019-03-16T06:06:21.350Z,100239.45
2019-03-16T06:08:50.838Z,100238.06
2019-03-16T06:11:20.349Z,100233.66
2019-03-16T06:13:54.063Z,100242.77
2019-03-16T06:16:23.662Z,100247.64
2019-03-16T06:18:56.833Z,100248.30
2019-03-16T06:21:26.720Z,100252.70
2019-03-16T06:23:56.299Z,100259.28
2019-03-16T06:26:25.913Z,100255.80
2019-03-16T06:28:56.674Z,100250.93
2019-03-16T06:31:26.213Z,100262.47
2019-03-16T06:33:55.626Z,100256.02
2019-03-16T06:36:26.305Z,100251.59
2019-03-16T06:38:56.708Z,100256.19
2019-03-16T06:41:26.493Z,100254.05
2019-03-16T06:43:59.321Z,100254.14
2019-03-16T06:46:28.971Z,100259.42
2019-03-16T06:48:58.917Z,100255.44
2019-03-16T06:51:28.639Z,100264.64
2019-03-16T06:53:59.913Z,100256.66
2019-03-16T06:56:31.161Z,100248.59
2019-03-16T06:59:04.333Z,100247.91
2019-03-16T07:01:36.192Z,100259.55
2019-03-16T07:04:06.844Z,100264.55
2019-03-16T07:06:36.516Z,100251.86
2019-03-16T07:09:10.783Z,100260.97
2019-03-16T07:11:40.285Z,100261.55
2019-03-16T07:14:09.989Z,100267.01
2019-03-16T07:16:39.554Z,100273.38
2019-03-16T07:19:09.343Z,100278.02
2019-03-16T07:21:39.200Z,100275.00
2019-03-16T07:24:09.225Z,100275.28
2019-03-16T07:26:38.755Z,100286.94
2019-03-16T07:29:09.705Z,100278.48
2019-03-16T07:31:39.609Z,100287.13
2019-03-16T07:34:13.931Z,100294.99
2019-03-16T07:36:43.551Z,100311.20
2019-03-16T07:39:13.619Z,100321.16
2019-03-16T07:41:43.077Z,100319.95
2019-03-16T07:44:13.109Z,100321.52
2019-03-16T07:46:42.581Z,100316.41
2019-03-16T07:49:18.035Z,100329.36
2019-03-16T07:51:53.582Z,100322.33
2019-03-16T07:54:23.250Z,100326.83
2019-03-16T07:56:53.417Z,100330.67
2019-03-16T07:59:26.363Z,100320.62
2019-03-16T08:01:55.953Z,100319.75
2019-03-16T08:04:25.423Z,100323.25
2019-03-16T08:06:55.056Z,100322.19
2019-03-16T08:09:25.334Z,100325.92
2019-03-16T08:11:55.341Z,100329.41
2019-03-16T08:14:25.090Z,100341.30
2019-03-16T08:16:55.706Z,100334.36
2019-03-16T08:19:25.622Z,100339.63
2019-03-16T08:21:55.435Z,100329.97
2019-03-16T08:24:25.107Z,100327.08
2019-03-16T08:26:54.560Z,100336.58
2019-03-16T08:29:24.195Z,100325.92
2019-03-16T08:31:54.312Z,100339.08
2019-03-16T08:34:24.083Z,100340.48
2019-03-16T08:36:53.757Z,100341.44
2019-03-16T08:39:23.445Z,100326.69
2019-03-16T08:41:53.191Z,100332.86
2019-03-16T08:44:23.061Z,100339.63
2019-03-16T08:46:53.006Z,100353.48
2019-03-16T08:49:22.675Z,100342.45
2019-03-16T08:51:52.313Z,100337.34
2019-03-16T08:54:21.831Z,100349.43
2019-03-16T08:56:52.388Z,100352.42
2019-03-16T08:59:24.365Z,100344.17
2019-03-16T09:01:53.550Z,100360.16
2019-03-16T09:04:23.540Z,100351.66
2019-03-16T09:06:54.358Z,100361.22
2019-03-16T09:09:25.426Z,100360.70
2019-03-16T09:11:58.071Z,100367.44
2019-03-16T09:14:26.412Z,100352.72
2019-03-16T09:16:57.133Z,100356.62
2019-03-16T09:19:26.767Z,100349.69
2019-03-16T09:21:56.658Z,100339.77
2019-03-16T09:24:26.182Z,100336.54
2019-03-16T09:26:55.903Z,100332.14
2019-03-16T09:29:25.598Z,100341.45
2019-03-16T09:31:55.202Z,100333.56
2019-03-16T09:34:25.545Z,100337.30
2019-03-16T09:36:55.563Z,100332.44
2019-03-16T09:39:27.866Z,100343.93
2019-03-16T09:41:58.155Z,100339.47
2019-03-16T09:44:27.890Z,100330.98
2019-03-16T09:47:05.259Z,100328.79
2019-03-16T09:49:35.949Z,100326.69
2019-03-16T09:52:11.628Z,100341.80
2019-03-16T09:54:49.117Z,100340.28
2019-03-16T09:57:19.688Z,100333.00
2019-03-16T09:59:51.215Z,100336.84
2019-03-16T10:02:21.191Z,100330.48
2019-03-16T10:04:53.358Z,100327.45
2019-03-16T10:07:27.258Z,100328.09
2019-03-16T10:09:57.338Z,100333.75
2019-03-16T10:12:30.234Z,100328.15
2019-03-16T10:15:03.506Z,100324.41
2019-03-16T10:17:33.583Z,100312.78
2019-03-16T10:20:11.444Z,100317.54
2019-03-16T10:22:41.813Z,100319.34
2019-03-16T10:25:12.266Z,100322.98
2019-03-16T10:27:42.690Z,100320.67
2019-03-16T10:30:14.944Z,100317.59
2019-03-16T10:32:46.968Z,100313.34
2019-03-16T10:35:19.053Z,100306.35
2019-03-16T10:37:48.788Z,100316.11
2019-03-16T10:40:23.331Z,100331.08
2019-03-16T10:42:55.399Z,100307.72
2019-03-16T10:45:25.369Z,100319.84
2019-03-16T10:48:03.267Z,100320.14
2019-03-16T10:50:33.554Z,100314.73
2019-03-16T10:53:09.276Z,100320.12
2019-03-16T10:55:40.496Z,100326.14
2019-03-16T10:58:18.523Z,100320.33
2019-03-16T11:00:51.087Z,100299.87
2019-03-16T11:03:20.849Z,100297.81
2019-03-16T11:05:55.017Z,100288.48
2019-03-16T11:08:25.647Z,100273.69
2019-03-16T11:10:57.793Z,100244.89
2019-03-16T11:13:27.464Z,100238.41
2019-03-16T11:15:57.428Z,100241.48
2019-03-16T11:18:27.206Z,100241.45
2019-03-16T11:20:57.822Z,100246.66
2019-03-16T11:23:29.627Z,100239.17
2019-03-16T11:25:59.506Z,100240.40
2019-03-16T11:28:31.334Z,100233.37
2019-03-16T11:31:02.398Z,100241.78
2019-03-16T11:33:32.142Z,100248.62
2019-03-16T11:36:04.694Z,100245.37
2019-03-16T11:38:37.331Z,100247.71
2019-03-16T11:41:12.879Z,100227.13
2019-03-16T11:43:42.510Z,100230.13
2019-03-16T11:46:12.363Z,100224.27
2019-03-16T11:48:42.368Z,100234.50
2019-03-16T11:51:12.217Z,100223.00
2019-03-16T11:53:42.038Z,100240.34
2019-03-16T11:56:17.901Z,100215.91
2019-03-16T11:58:45.156Z,100212.89
2019-03-16T12:01:18.562Z,100231.04
2019-03-16T12:03:48.799Z,100216.14
2019-03-16T12:06:18.631Z,100208.77
2019-03-16T12:08:52.304Z,100204.53
2019-03-16T12:11:27.250Z,100224.25
2019-03-16T12:13:56.918Z,100201.32
2019-03-16T12:16:26.771Z,100217.06
2019-03-16T12:18:58.988Z,100204.95
2019-03-16T12:21:28.736Z,100202.21
2019-03-16T12:24:12.231Z,100187.70
2019-03-16T12:26:45.621Z,100189.77
2019-03-16T12:29:18.564Z,100173.41
2019-03-16T12:31:55.518Z,100174.69
2019-03-16T12:34:26.073Z,100168.30
2019-03-16T12:36:56.143Z,100166.94
2019-03-16T12:39:26.547Z,100169.37
2019-03-16T12:41:57.443Z,100186.92
2019-03-16T12:44:28.166Z,100162.37
2019-03-16T12:46:58.496Z,100156.63
2019-03-16T12:49:29.819Z,100162.50
2019-03-16T12:51:59.917Z,100165.61
2019-03-16T12:54:30.729Z,100168.58
2019-03-16T12:57:01.567Z,100145.36
2019-03-16T12:59:45.917Z,100164.05
2019-03-16T13:02:07.121Z,100166.97
2019-03-16T13:04:37.449Z,100175.45
2019-03-16T13:07:10.435Z,100173.09
2019-03-16T13:09:42.448Z,100154.29
2019-03-16T13:12:18.899Z,100153.51
2019-03-16T13:14:49.316Z,100137.52
2019-03-16T13:17:19.575Z,100144.59
2019-03-16T13:19:52.110Z,100129.00
2019-03-16T13:22:23.486Z,100127.28
2019-03-16T13:24:54.029Z,100126.23
2019-03-16T13:27:24.181Z,100118.42
2019-03-16T13:29:59.039Z,100125.22
2019-03-16T13:32:31.225Z,100125.52
2019-03-16T13:35:03.273Z,100123.97
2019-03-16T13:37:33.540Z,100125.29
2019-03-16T13:40:07.669Z,100129.29
2019-03-16T13:42:37.760Z,100139.27
2019-03-16T13:45:11.347Z,100146.11
2019-03-16T13:47:42.237Z,100155.16
2019-03-16T13:50:16.009Z,100151.35
2019-03-16T13:52:47.562Z,100146.38
2019-03-16T13:55:17.730Z,100149.69
2019-03-16T13:57:47.739Z,100149.61
2019-03-16T14:00:18.560Z,100152.52
2019-03-16T14:02:49.269Z,100147.48
2019-03-16T14:05:19.567Z,100149.50
2019-03-16T14:07:49.799Z,100163.02
2019-03-16T14:10:20.781Z,100139.75
2019-03-16T14:12:50.974Z,100140.92
2019-03-16T14:15:21.392Z,100135.05
2019-03-16T14:17:51.455Z,100128.76
2019-03-16T14:20:24.668Z,100125.83
2019-03-16T14:22:55.749Z,100121.80
2019-03-16T14:25:26.067Z,100115.17
2019-03-16T14:27:56.534Z,100111.28
2019-03-16T14:30:40.283Z,100108.02
2019-03-16T14:32:58.881Z,100107.70
2019-03-16T14:35:29.099Z,100101.45
2019-03-16T14:38:02.081Z,100098.61
2019-03-16T14:40:32.139Z,100098.07
2019-03-16T14:43:06.880Z,100099.59
2019-03-16T14:45:37.715Z,100082.01
2019-03-16T14:48:10.088Z,100081.08
2019-03-16T14:50:40.545Z,100069.96
2019-03-16T14:53:12.394Z,100062.55
2019-03-16T14:55:44.811Z,100056.06
2019-03-16T14:58:15.454Z,100050.27
2019-03-16T15:00:48.639Z,100046.30
2019-03-16T15:03:18.817Z,100042.98
2019-03-16T15:05:49.751Z,100045.97
2019-03-16T15:08:20.187Z,100045.52
2019-03-16T15:10:51.543Z,100045.20
2019-03-16T15:13:22.290Z,100056.48
2019-03-16T15:15:56.536Z,100045.45
2019-03-16T15:18:27.495Z,100057.97
2019-03-16T15:20:57.722Z,100058.03
2019-03-16T15:23:28.096Z,100051.25
2019-03-16T15:26:05.098Z,100049.55
2019-03-16T15:28:35.742Z,100042.94
2019-03-16T15:31:07.778Z,100054.65
2019-03-16T15:33:40.590Z,100045.25
2019-03-16T15:36:11.031Z,100033.23
2019-03-16T15:38:43.781Z,100041.86
2019-03-16T15:41:14.648Z,100034.59
2019-03-16T15:43:47.378Z,100036.02
2019-03-16T15:46:19.538Z,100025.34
2019-03-16T15:48:50.538Z,100023.73
2019-03-16T15:51:24.039Z,100029.03
2019-03-16T15:53:57.103Z,100017.44
2019-03-16T15:56:28.012Z,100029.92
2019-03-16T15:59:03.854Z,100013.94
2019-03-16T16:01:34.641Z,100014.38
2019-03-16T16:04:10.722Z,100009.48
2019-03-16T16:06:40.965Z,99999.45
2019-03-16T16:09:11.663Z,100000.61
2019-03-16T16:11:41.877Z,99997.81
2019-03-16T16:14:12.974Z,99991.19
2019-03-16T16:16:45.044Z,99988.13
2019-03-16T16:19:16.631Z,99980.36
2019-03-16T16:21:49.698Z,99974.06
2019-03-16T16:24:23.955Z,99977.14
2019-03-16T16:26:55.233Z,99967.62
2019-03-16T16:29:25.875Z,99965.23
2019-03-16T16:31:56.320Z,99963.05
2019-03-16T16:34:27.688Z,99957.48
2019-03-16T16:37:00.174Z,99954.45
2019-03-16T16:39:32.943Z,99954.55
2019-03-16T16:42:07.045Z,99954.31
2019-03-16T16:44:41.030Z,99955.05
2019-03-16T16:47:13.277Z,99948.72
2019-03-16T16:49:44.017Z,99949.13
2019-03-16T16:52:15.087Z,99943.62
2019-03-16T16:54:45.689Z,99949.86
2019-03-16T16:57:31.802Z,99945.81
2019-03-16T17:00:03.633Z,99942.64
2019-03-16T17:02:34.335Z,99941.31
2019-03-16T17:05:04.778Z,99932.67
2019-03-16T17:07:38.392Z,99935.44
2019-03-16T17:10:10.249Z,99938.78
2019-03-16T17:12:40.486Z,99937.52
2019-03-16T17:15:12.068Z,99934.14
2019-03-16T17:17:44.298Z,99932.23
2019-03-16T17:20:14.726Z,99929.05
2019-03-16T17:22:45.040Z,99932.94
2019-03-16T17:25:16.107Z,99930.75
2019-03-16T17:27:46.397Z,99922.02
2019-03-16T17:30:20.094Z,99916.38
2019-03-16T17:32:51.628Z,99918.25
2019-03-16T17:35:23.085Z,99917.09
2019-03-16T17:37:53.700Z,99911.33
2019-03-16T17:40:25.656Z,99912.50
2019-03-16T17:42:59.629Z,99907.02
2019-03-16T17:45:30.595Z,99902.97
2019-03-16T17:48:01.178Z,99901.86
2019-03-16T17:50:37.811Z,99894.31
2019-03-16T17:53:11.745Z,99898.61
2019-03-16T17:55:50.439Z,99899.84
2019-03-16T17:58:21.880Z,99892.41
2019-03-16T18:00:55.290Z,99891.55
2019-03-16T18:03:25.823Z,99892.84
2019-03-16T18:05:58.518Z,99891.93
2019-03-16T18:08:29.562Z,99895.63
2019-03-16T18:11:01.104Z,99894.71
2019-03-16T18:13:32.584Z,99894.28
2019-03-16T18:16:05.987Z,99894.97
2019-03-16T18:18:37.708Z,99892.84
2019-03-16T18:21:10.771Z,99892.96
2019-03-16T18:23:41.209Z,99888.38
2019-03-16T18:26:13.199Z,99885.05
2019-03-16T18:28:44.166Z,99880.95
2019-03-16T18:31:14.377Z,99879.94
2019-03-16T18:33:46.647Z,99876.30
2019-03-16T18:36:16.973Z,99872.80
2019-03-16T18:38:49.845Z,99874.35
2019-03-16T18:41:21.218Z,99883.23
2019-03-16T18:43:53.873Z,99880.03
2019-03-16T18:46:24.308Z,99872.42
2019-03-16T18:49:01.589Z,99869.91
2019-03-16T18:53:55.822Z,99867.39
2019-03-16T18:56:26.472Z,99867.96
2019-03-16T18:58:56.902Z,99856.57
2019-03-16T19:01:27.609Z,99856.00
2019-03-16T19:03:59.628Z,99853.02
2019-03-16T19:06:41.986Z,99856.27
2019-03-16T19:09:13.979Z,99854.30
2019-03-16T19:11:51.004Z,99855.55
2019-03-16T19:14:26.828Z,99841.00
2019-03-16T19:17:01.067Z,99843.38
2019-03-16T19:19:33.169Z,99843.19
2019-03-16T19:22:07.128Z,99833.29
2019-03-16T19:24:37.621Z,99835.61
2019-03-16T19:27:08.154Z,99841.82
2019-03-16T19:29:41.557Z,99829.12
2019-03-16T19:32:17.401Z,99836.34
2019-03-16T19:34:49.914Z,99833.33
2019-03-16T19:37:23.422Z,99838.16
2019-03-16T19:39:53.934Z,99833.38
2019-03-16T19:42:28.987Z,99817.42
2019-03-16T19:44:59.617Z,99825.45
2019-03-16T19:47:30.040Z,99824.72
2019-03-16T19:50:03.849Z,99823.48
2019-03-16T19:52:37.849Z,99817.09
2019-03-16T19:55:10.482Z,99822.20
2019-03-16T19:57:43.747Z,99817.02
2019-03-16T20:00:15.398Z,99806.38
2019-03-16T20:02:50.669Z,99811.27
2019-03-16T20:05:23.871Z,99807.48
2019-03-16T20:07:54.237Z,99806.15
2019-03-16T20:10:24.532Z,99803.69
2019-03-16T20:12:55.453Z,99803.13
2019-03-16T20:15:26.233Z,99801.55
2019-03-16T20:17:56.610Z,99800.56
2019-03-16T20:20:27.891Z,99796.42
2019-03-16T20:22:58.278Z,99793.98
2019-03-16T20:25:29.495Z,99795.42
2019-03-16T20:27:59.899Z,99794.71
2019-03-16T20:30:30.522Z,99796.59
2019-03-16T20:33:04.130Z,99792.52
2019-03-16T20:35:36.815Z,99800.20
2019-03-16T20:38:10.216Z,99794.93
2019-03-16T20:40:41.466Z,99788.70
2019-03-16T20:43:13.094Z,99783.06
2019-03-16T20:45:48.168Z,99783.81
2019-03-16T20:48:19.464Z,99779.56
2019-03-16T20:50:49.987Z,99774.89
2019-03-16T20:53:20.687Z,99770.63
2019-03-16T20:55:50.927Z,99758.30
2019-03-16T20:58:22.238Z,99764.92
2019-03-16T21:00:52.786Z,99760.56
2019-03-16T21:03:23.204Z,99758.98
2019-03-16T21:05:54.068Z,99753.49
2019-03-16T21:08:24.194Z,99759.45
2019-03-16T21:10:54.623Z,99762.09
2019-03-16T21:13:25.030Z,99762.66
2019-03-16T21:15:55.249Z,99761.80
2019-03-16T21:18:25.543Z,99763.16
2019-03-16T21:20:55.683Z,99753.73
2019-03-16T21:23:26.200Z,99751.23
2019-03-16T21:25:56.702Z,99750.25
2019-03-16T21:28:26.841Z,99754.44
2019-03-16T21:30:57.134Z,99747.23
2019-03-16T21:33:29.683Z,99744.56
2019-03-16T21:35:59.672Z,99740.68
2019-03-16T21:38:29.917Z,99739.03
2019-03-16T21:41:02.579Z,99739.88
2019-03-16T21:43:33.998Z,99731.33
2019-03-16T21:46:07.313Z,99735.96
2019-03-16T21:48:37.714Z,99722.86
2019-03-16T21:51:08.388Z,99726.18
2019-03-16T21:53:38.524Z,99715.53
2019-03-16T21:56:08.869Z,99708.39
2019-03-16T21:58:39.062Z,99703.52
2019-03-16T22:01:09.204Z,99705.14
2019-03-16T22:03:41.920Z,99696.44
2019-03-16T22:06:12.859Z,99698.41
2019-03-16T22:08:42.969Z,99695.20
2019-03-16T22:11:13.046Z,99693.11
2019-03-16T22:13:42.619Z,99696.55
2019-03-16T22:16:14.162Z,99691.41
2019-03-16T22:18:44.209Z,99692.61
2019-03-16T22:21:17.305Z,99695.73
2019-03-16T22:23:48.199Z,99693.45
2019-03-16T22:26:17.957Z,99692.56
2019-03-16T22:28:48.258Z,99691.39
2019-03-16T22:31:18.183Z,99687.19
2019-03-16T22:33:54.331Z,99685.53
2019-03-16T22:36:19.678Z,99681.83
2019-03-16T22:38:53.149Z,99682.31
2019-03-16T22:41:26.781Z,99675.24
2019-03-16T22:44:00.756Z,99670.36
2019-03-16T22:46:30.042Z,99664.64
2019-03-16T22:48:59.607Z,99659.38
2019-03-16T22:51:29.319Z,99654.00
2019-03-16T22:54:02.912Z,99654.12
2019-03-16T22:56:32.700Z,99652.69
2019-03-16T22:59:03.020Z,99641.75
2019-03-16T23:01:35.896Z,99645.91
2019-03-16T23:04:08.305Z,99641.52
2019-03-16T23:06:38.254Z,99641.38
2019-03-16T23:09:09.497Z,99633.10
2019-03-16T23:11:43.667Z,99627.34
2019-03-16T23:14:15.750Z,99630.87
2019-03-16T23:16:51.135Z,99623.16
2019-03-16T23:19:21.442Z,99612.19
2019-03-16T23:21:55.377Z,99610.32
2019-03-16T23:24:25.642Z,99611.48
2019-03-16T23:26:56.720Z,99603.91
2019-03-16T23:29:26.161Z,99600.38
2019-03-16T23:31:55.768Z,99599.48
2019-03-16T23:34:25.391Z,99601.20
2019-03-16T23:36:54.900Z,99594.03
2019-03-16T23:39:24.811Z,99590.13
2019-03-16T23:41:56.875Z,99585.47
2019-03-16T23:44:27.386Z,99585.65
2019-03-16T23:46:58.201Z,99582.02
2019-03-16T23:49:27.813Z,99580.89
2019-03-16T23:51:57.552Z,99570.47
2019-03-16T23:54:27.261Z,99570.09
2019-03-16T23:56:58.804Z,99563.28
2019-03-16T23:59:28.325Z,99555.38
